createdAt,value
2024-04-06T00:00:17.088Z,12.9141
2024-04-06T00:01:18.505Z,12.7565
2024-04-06T00:02:19.904Z,13.1353
2024-04-06T00:03:23.807Z,12.4322
2024-04-06T00:04:23.194Z,12.2610
2024-04-06T00:05:24.485Z,12.1535
2024-04-06T00:06:25.733Z,12.4606
2024-04-06T00:07:27.048Z,12.4394
2024-04-06T00:08:28.319Z,12.3037
2024-04-06T00:09:29.608Z,12.1058
2024-04-06T00:10:30.861Z,12.2327
2024-04-06T00:11:32.169Z,12.5343
2024-04-06T00:12:33.635Z,12.7985
2024-04-06T00:13:35.038Z,12.7972
2024-04-06T00:14:36.307Z,12.9265
2024-04-06T00:15:37.587Z,12.7408
2024-04-06T00:16:38.882Z,12.7675
2024-04-06T00:17:40.172Z,12.4468
2024-04-06T00:18:41.611Z,12.1856
2024-04-06T00:19:43.104Z,12.0450
2024-04-06T00:20:44.488Z,11.8529
2024-04-06T00:21:45.940Z,11.7399
2024-04-06T00:22:47.385Z,11.7855
2024-04-06T00:23:48.812Z,11.8117
2024-04-06T00:24:50.255Z,12.4217
2024-04-06T00:25:51.691Z,12.1995
2024-04-06T00:26:53.189Z,11.9168
2024-04-06T00:27:54.556Z,12.2343
2024-04-06T00:28:55.828Z,12.1226
2024-04-06T00:29:57.134Z,11.9536
2024-04-06T00:30:58.392Z,11.8515
2024-04-06T00:31:59.692Z,11.7922
2024-04-06T00:33:01.149Z,12.7237
2024-04-06T00:34:02.591Z,12.8434
2024-04-06T00:35:04.013Z,13.4810
2024-04-06T00:36:05.445Z,13.5003
2024-04-06T00:37:06.888Z,13.9114
2024-04-06T00:38:08.328Z,14.2449
2024-04-06T00:39:09.774Z,13.8899
2024-04-06T00:40:11.240Z,13.6167
2024-04-06T00:41:12.614Z,14.0974
2024-04-06T00:42:14.067Z,14.1754
2024-04-06T00:43:15.506Z,13.7873
2024-04-06T00:44:16.949Z,13.5030
2024-04-06T00:45:18.381Z,14.0647
2024-04-06T00:46:19.827Z,14.0162
2024-04-06T00:47:21.147Z,13.9051
2024-04-06T00:48:22.450Z,13.7307
2024-04-06T00:49:23.725Z,13.2113
2024-04-06T00:50:25.064Z,13.2834
2024-04-06T00:51:26.400Z,13.6473
2024-04-06T00:52:27.819Z,13.6165
2024-04-06T00:53:29.317Z,13.7075
2024-04-06T00:54:30.698Z,13.8016
2024-04-06T00:55:32.147Z,13.7138
2024-04-06T00:56:33.584Z,13.6098
2024-04-06T00:57:35.025Z,13.6156
2024-04-06T00:58:36.365Z,13.3627
2024-04-06T00:59:37.705Z,13.3439
2024-04-06T01:00:39.032Z,13.5107
2024-04-06T01:01:44.326Z,13.8877
2024-04-06T01:02:40.332Z,13.6903
2024-04-06T01:03:41.758Z,13.9803
2024-04-06T01:04:43.198Z,13.5603
2024-04-06T01:05:44.517Z,13.7848
2024-04-06T01:06:45.845Z,14.1261
2024-04-06T01:07:47.183Z,14.0155
2024-04-06T01:08:48.628Z,13.8454
2024-04-06T01:09:50.067Z,13.9100
2024-04-06T01:10:51.506Z,14.3446
2024-04-06T01:11:52.946Z,14.2323
2024-04-06T01:12:54.376Z,14.2885
2024-04-06T01:13:55.816Z,14.1951
2024-04-06T01:14:57.259Z,14.0670
2024-04-06T01:15:58.766Z,14.2516
2024-04-06T01:17:00.157Z,14.0067
2024-04-06T01:18:01.587Z,14.1159
2024-04-06T01:19:03.031Z,14.2614
2024-04-06T01:20:04.462Z,14.7032
2024-04-06T01:21:05.898Z,14.4398
2024-04-06T01:22:07.348Z,14.4816
2024-04-06T01:23:08.644Z,14.5497
2024-04-06T01:24:10.057Z,14.4989
2024-04-06T01:25:11.377Z,14.3170
2024-04-06T01:26:12.846Z,14.0333
2024-04-06T01:27:14.198Z,13.9873
2024-04-06T01:28:15.647Z,14.0741
2024-04-06T01:29:17.070Z,14.1596
2024-04-06T01:30:18.511Z,14.5551
2024-04-06T01:31:19.943Z,14.6242
2024-04-06T01:32:21.477Z,14.5763
2024-04-06T01:33:22.827Z,14.7796
2024-04-06T01:34:24.282Z,14.9657
2024-04-06T01:35:25.862Z,15.0750
2024-04-06T01:36:27.226Z,14.9739
2024-04-06T01:37:28.595Z,14.7871
2024-04-06T01:38:30.107Z,14.8697
2024-04-06T01:39:31.495Z,14.7715
2024-04-06T01:40:33.048Z,14.7880
2024-04-06T01:41:34.378Z,14.8799
2024-04-06T01:42:35.827Z,14.8837
2024-04-06T01:43:37.263Z,14.7607
2024-04-06T01:44:38.711Z,15.1839
2024-04-06T01:45:40.137Z,14.9965
2024-04-06T01:46:41.577Z,15.2421
2024-04-06T01:47:43.026Z,15.1163
2024-04-06T01:48:44.375Z,15.0013
2024-04-06T01:49:45.687Z,14.5293
2024-04-06T01:50:47.009Z,14.4671
2024-04-06T01:51:48.459Z,14.3350
2024-04-06T01:52:49.907Z,14.2160
2024-04-06T01:53:51.315Z,13.9579
2024-04-06T01:54:52.602Z,14.1313
2024-04-06T01:55:53.947Z,13.9855
2024-04-06T01:56:55.345Z,13.8281
2024-04-06T01:57:56.774Z,13.6924
2024-04-06T01:58:58.229Z,14.6173
2024-04-06T01:59:59.672Z,14.7012
2024-04-06T02:01:01.118Z,14.6517
2024-04-06T02:02:02.545Z,14.8012
2024-04-06T02:03:03.848Z,14.6118
2024-04-06T02:04:05.190Z,14.7550
2024-04-06T02:05:06.539Z,14.9390
2024-04-06T02:06:07.949Z,14.9102
2024-04-06T02:07:09.430Z,14.7946
2024-04-06T02:08:10.862Z,14.6998
2024-04-06T02:09:12.316Z,14.7613
2024-04-06T02:10:13.752Z,14.8560
2024-04-06T02:11:15.167Z,14.5911
2024-04-06T02:12:16.639Z,14.6652
2024-04-06T02:13:18.073Z,14.7353
2024-04-06T02:14:19.607Z,14.8545
2024-04-06T02:15:20.924Z,14.7335
2024-04-06T02:16:22.387Z,14.6950
2024-04-06T02:17:23.861Z,14.8209
2024-04-06T02:18:25.267Z,14.9376
2024-04-06T02:19:26.783Z,14.9183
2024-04-06T02:20:28.232Z,14.8363
2024-04-06T02:21:29.594Z,14.6660
2024-04-06T02:22:31.353Z,14.5878
2024-04-06T02:23:32.794Z,14.8441
2024-04-06T02:24:34.261Z,14.9619
2024-04-06T02:25:35.662Z,14.4905
2024-04-06T02:26:37.089Z,14.4257
2024-04-06T02:27:38.552Z,14.4835
2024-04-06T02:28:39.981Z,14.3972
2024-04-06T02:29:41.430Z,14.6737
2024-04-06T02:30:42.709Z,14.4608
2024-04-06T02:31:44.070Z,14.8581
2024-04-06T02:32:45.429Z,14.9468
2024-04-06T02:33:46.856Z,14.9062
2024-04-06T02:34:48.337Z,14.7089
2024-04-06T02:35:49.745Z,14.8435
2024-04-06T02:36:51.037Z,14.9498
2024-04-06T02:37:52.355Z,14.9566
2024-04-06T02:38:53.682Z,14.5797
2024-04-06T02:39:54.955Z,14.2312
2024-04-06T02:40:56.251Z,13.9780
2024-04-06T02:41:57.774Z,13.4516
2024-04-06T02:42:59.261Z,13.0371
2024-04-06T02:44:00.620Z,12.8836
2024-04-06T02:45:02.155Z,12.6570
2024-04-06T02:46:03.501Z,12.5060
2024-04-06T02:47:04.943Z,12.1958
2024-04-06T02:48:06.386Z,11.8969
2024-04-06T02:49:07.816Z,12.0211
2024-04-06T02:50:09.248Z,11.8241
2024-04-06T02:51:10.704Z,11.6441
2024-04-06T02:52:12.143Z,11.5332
2024-04-06T02:53:13.567Z,11.4409
2024-04-06T02:54:15.026Z,11.3598
2024-04-06T02:55:16.466Z,11.4167
2024-04-06T02:56:17.911Z,11.6780
2024-04-06T02:57:19.346Z,11.4112
2024-04-06T02:58:20.755Z,11.2026
2024-04-06T02:59:22.212Z,10.9706
2024-04-06T03:00:23.666Z,10.7296
2024-04-06T03:01:25.097Z,10.6493
2024-04-06T03:02:26.575Z,10.5881
2024-04-06T03:03:27.995Z,10.8023
2024-04-06T03:04:29.415Z,11.0632
2024-04-06T03:05:30.724Z,11.7563
2024-04-06T03:06:32.007Z,12.0483
2024-04-06T03:07:33.526Z,12.1997
2024-04-06T03:08:34.867Z,12.1075
2024-04-06T03:09:36.316Z,12.6249
2024-04-06T03:10:37.732Z,12.5106
2024-04-06T03:11:39.186Z,12.7677
2024-04-06T03:12:40.599Z,12.8469
2024-04-06T03:13:42.068Z,13.0014
2024-04-06T03:14:43.377Z,13.0445
2024-04-06T03:15:44.952Z,12.9915
2024-04-06T03:16:46.385Z,12.8461
2024-04-06T03:17:47.815Z,12.8670
2024-04-06T03:18:49.259Z,12.7550
2024-04-06T03:19:50.715Z,12.7011
2024-04-06T03:20:52.019Z,12.7961
2024-04-06T03:21:53.308Z,12.6361
2024-04-06T03:22:54.712Z,12.7025
2024-04-06T03:23:56.234Z,12.5417
2024-04-06T03:24:57.696Z,12.3865
2024-04-06T03:25:59.028Z,12.3664
2024-04-06T03:27:00.450Z,12.2027
2024-04-06T03:28:01.944Z,12.1967
2024-04-06T03:29:03.335Z,12.2054
2024-04-06T03:30:04.798Z,12.0282
2024-04-06T03:31:06.212Z,12.1221
2024-04-06T03:32:07.746Z,12.0693
2024-04-06T03:33:09.106Z,12.1896
2024-04-06T03:34:10.545Z,12.0082
2024-04-06T03:35:11.988Z,11.7417
2024-04-06T03:36:13.427Z,11.4727
2024-04-06T03:37:14.869Z,11.5131
2024-04-06T03:38:16.301Z,11.5657
2024-04-06T03:39:17.731Z,11.7123
2024-04-06T03:40:19.014Z,11.7632
2024-04-06T03:41:20.344Z,11.6080
2024-04-06T03:42:21.752Z,11.6240
2024-04-06T03:43:23.042Z,11.6964
2024-04-06T03:44:24.437Z,11.6787
2024-04-06T03:45:25.754Z,11.7201
2024-04-06T03:46:27.064Z,11.9589
2024-04-06T03:47:28.379Z,12.0008
2024-04-06T03:48:29.734Z,12.1796
2024-04-06T03:49:31.170Z,12.0951
2024-04-06T03:50:32.674Z,12.0596
2024-04-06T03:51:34.027Z,12.1615
2024-04-06T03:52:35.339Z,11.8909
2024-04-06T03:53:36.620Z,11.7720
2024-04-06T03:54:38.055Z,11.7618
2024-04-06T03:55:39.492Z,11.7076
2024-04-06T03:56:40.946Z,11.7787
2024-04-06T03:57:42.375Z,12.2674
2024-04-06T03:58:43.826Z,12.0063
2024-04-06T03:59:45.266Z,12.0250
2024-04-06T04:00:46.704Z,12.0838
2024-04-06T04:01:48.144Z,12.0794
2024-04-06T04:02:49.574Z,11.9931
2024-04-06T04:03:51.015Z,12.0984
2024-04-06T04:04:52.455Z,11.7921
2024-04-06T04:05:53.910Z,12.0406
2024-04-06T04:06:55.354Z,12.1642
2024-04-06T04:07:56.784Z,12.0029
2024-04-06T04:08:58.234Z,12.1983
2024-04-06T04:09:59.655Z,12.2910
2024-04-06T04:11:01.112Z,12.2016
2024-04-06T04:12:02.530Z,12.2704
2024-04-06T04:13:03.978Z,12.2404
2024-04-06T04:14:05.409Z,12.1837
2024-04-06T04:15:06.853Z,12.4177
2024-04-06T04:16:08.286Z,12.1460
2024-04-06T04:17:09.735Z,12.0096
2024-04-06T04:18:11.174Z,11.8921
2024-04-06T04:19:12.609Z,11.6691
2024-04-06T04:20:13.905Z,11.9920
2024-04-06T04:21:15.198Z,11.6707
2024-04-06T04:22:16.504Z,11.8598
2024-04-06T04:23:17.849Z,11.6286
2024-04-06T04:24:19.164Z,11.5852
2024-04-06T04:25:20.616Z,11.6714
2024-04-06T04:26:22.055Z,11.9130
2024-04-06T04:27:23.498Z,11.8199
2024-04-06T04:28:24.936Z,12.0134
2024-04-06T04:29:26.395Z,11.9289
2024-04-06T04:30:27.826Z,11.9933
2024-04-06T04:31:29.286Z,11.9891
2024-04-06T04:32:30.754Z,11.7910
2024-04-06T04:33:32.140Z,11.7338
2024-04-06T04:34:33.580Z,11.9410
2024-04-06T04:35:35.051Z,11.7390
2024-04-06T04:36:36.386Z,11.7087
2024-04-06T04:37:37.688Z,12.0737
2024-04-06T04:38:39.056Z,12.0758
2024-04-06T04:39:40.462Z,12.0313
2024-04-06T04:40:41.742Z,12.0929
2024-04-06T04:41:43.067Z,12.0941
2024-04-06T04:42:44.462Z,11.9099
2024-04-06T04:43:45.906Z,12.0965
2024-04-06T04:44:53.483Z,12.2404
2024-04-06T04:45:47.529Z,12.0781
2024-04-06T04:46:49.075Z,12.0418
2024-04-06T04:47:50.470Z,11.6336
2024-04-06T04:48:51.774Z,11.6810
2024-04-06T04:49:53.297Z,11.6611
2024-04-06T04:50:54.599Z,11.4694
2024-04-06T04:51:55.949Z,11.3012
2024-04-06T04:52:57.238Z,11.0929
2024-04-06T04:53:58.707Z,10.7946
2024-04-06T04:55:00.171Z,10.5183
2024-04-06T04:56:01.607Z,10.2123
2024-04-06T04:57:02.908Z,10.0094
2024-04-06T04:58:04.297Z,10.1858
2024-04-06T04:59:05.630Z,10.2329
2024-04-06T05:00:07.011Z,10.5246
2024-04-06T05:01:08.539Z,10.8422
2024-04-06T05:02:09.906Z,10.6107
2024-04-06T05:03:11.337Z,10.5871
2024-04-06T05:04:12.607Z,10.7397
2024-04-06T05:05:13.896Z,10.8925
2024-04-06T05:06:15.203Z,10.8839
2024-04-06T05:07:16.458Z,10.7682
2024-04-06T05:08:17.759Z,10.9205
2024-04-06T05:09:19.010Z,11.2927
2024-04-06T05:10:20.259Z,11.4737
2024-04-06T05:11:21.614Z,11.4105
2024-04-06T05:12:23.023Z,11.8642
2024-04-06T05:13:24.471Z,11.6689
2024-04-06T05:14:25.918Z,11.6631
2024-04-06T05:15:27.349Z,11.9837
2024-04-06T05:16:28.833Z,12.0836
2024-04-06T05:17:30.244Z,12.0382
2024-04-06T05:18:31.677Z,12.0733
2024-04-06T05:19:32.982Z,11.9225
2024-04-06T05:20:34.324Z,11.7184
2024-04-06T05:21:35.682Z,11.8100
2024-04-06T05:22:37.112Z,11.9042
2024-04-06T05:23:38.627Z,11.8571
2024-04-06T05:24:39.965Z,12.0081
2024-04-06T05:25:41.234Z,11.8595
2024-04-06T05:26:42.589Z,12.0123
2024-04-06T05:27:43.962Z,12.1395
2024-04-06T05:28:45.231Z,12.2087
2024-04-06T05:29:46.543Z,12.0516
2024-04-06T05:30:47.986Z,12.0787
2024-04-06T05:31:49.418Z,12.0552
2024-04-06T05:32:50.698Z,12.2288
2024-04-06T05:33:51.994Z,12.2746
2024-04-06T05:34:53.432Z,12.3246
2024-04-06T05:35:54.858Z,12.2856
2024-04-06T05:36:56.314Z,12.2617
2024-04-06T05:37:57.738Z,12.2756
2024-04-06T05:38:59.006Z,12.3887
2024-04-06T05:40:00.298Z,12.4085
2024-04-06T05:41:01.737Z,12.5014
2024-04-06T05:42:03.191Z,12.4988
2024-04-06T05:43:04.624Z,12.4850
2024-04-06T05:44:07.597Z,12.6546
2024-04-06T05:45:09.007Z,12.5976
2024-04-06T05:46:10.259Z,12.6923
2024-04-06T05:47:11.669Z,12.8996
2024-04-06T05:48:13.099Z,12.9568
2024-04-06T05:49:14.607Z,12.9290
2024-04-06T05:50:15.988Z,13.0280
2024-04-06T05:51:17.418Z,13.1411
2024-04-06T05:52:18.707Z,13.2821
2024-04-06T05:53:20.066Z,13.3036
2024-04-06T05:54:21.420Z,13.4106
2024-04-06T05:55:22.666Z,13.4860
2024-04-06T05:56:23.987Z,13.4532
2024-04-06T05:57:25.431Z,13.4207
2024-04-06T05:58:26.861Z,13.4368
2024-04-06T05:59:28.321Z,13.5289
2024-04-06T06:00:29.740Z,13.5776
2024-04-06T06:01:31.199Z,13.5185
2024-04-06T06:02:32.728Z,13.4951
2024-04-06T06:03:33.979Z,13.5122
2024-04-06T06:04:35.499Z,13.5308
2024-04-06T06:05:36.789Z,13.6941
2024-04-06T06:06:38.051Z,13.7463
2024-04-06T06:07:39.512Z,13.7262
2024-04-06T06:08:40.953Z,13.5803
2024-04-06T06:09:42.377Z,13.6453
2024-04-06T06:10:43.884Z,13.5372
2024-04-06T06:11:45.271Z,13.7810
2024-04-06T06:12:46.717Z,13.7633
2024-04-06T06:13:48.147Z,13.7023
2024-04-06T06:14:49.576Z,13.7678
2024-04-06T06:15:51.026Z,13.7782
2024-04-06T06:16:52.507Z,13.9500
2024-04-06T06:17:53.923Z,13.9726
2024-04-06T06:18:55.326Z,13.8699
2024-04-06T06:19:56.595Z,13.9638
2024-04-06T06:20:58.007Z,13.8974
2024-04-06T06:21:59.346Z,13.9266
2024-04-06T06:23:00.792Z,13.9397
2024-04-06T06:24:02.254Z,14.1126
2024-04-06T06:25:03.676Z,14.3110
2024-04-06T06:26:05.107Z,14.4473
2024-04-06T06:27:06.568Z,14.1984
2024-04-06T06:28:07.985Z,14.4448
2024-04-06T06:29:09.448Z,14.4538
2024-04-06T06:30:10.868Z,14.8287
2024-04-06T06:31:12.303Z,14.8650
2024-04-06T06:32:13.753Z,15.1248
2024-04-06T06:33:15.195Z,15.1012
2024-04-06T06:34:16.654Z,15.2285
2024-04-06T06:35:18.069Z,15.0012
2024-04-06T06:38:20.511Z,14.6944
2024-04-06T06:41:23.573Z,14.8494
2024-04-06T06:42:24.934Z,14.7879
2024-04-06T06:43:26.384Z,14.7233
2024-04-06T06:44:27.838Z,14.8138
2024-04-06T06:45:29.269Z,14.8361
2024-04-06T06:46:30.693Z,14.9186
2024-04-06T06:47:32.179Z,14.9319
2024-04-06T06:48:33.570Z,15.0559
2024-04-06T06:49:35.017Z,15.0672
2024-04-06T06:50:36.455Z,14.8985
2024-04-06T06:51:37.896Z,14.7070
2024-04-06T06:52:39.352Z,14.8462
2024-04-06T06:53:40.622Z,14.7946
2024-04-06T06:54:42.828Z,14.6889
2024-04-06T06:55:44.237Z,14.7327
2024-04-06T06:56:45.682Z,14.6098
2024-04-06T06:57:47.131Z,14.5366
2024-04-06T06:58:48.366Z,14.3793
2024-04-06T07:00:50.346Z,14.4150
2024-04-06T07:01:51.650Z,14.6412
2024-04-06T07:02:52.909Z,14.5479
2024-04-06T07:03:54.208Z,14.4637
2024-04-06T07:04:55.458Z,14.5530
2024-04-06T07:05:56.897Z,14.8212
2024-04-06T07:07:58.937Z,14.9537
2024-04-06T07:09:02.748Z,15.0205
2024-04-06T07:10:00.786Z,14.8207
2024-04-06T07:11:02.078Z,14.8169
2024-04-06T07:12:03.325Z,14.8102
2024-04-06T07:13:04.652Z,14.7978
2024-04-06T07:14:06.082Z,14.7640
2024-04-06T07:15:07.498Z,14.7594
2024-04-06T07:16:08.775Z,14.6039
2024-04-06T07:17:10.060Z,14.7987
2024-04-06T07:18:11.329Z,14.5956
2024-04-06T07:19:12.927Z,14.7536
2024-04-06T07:20:14.190Z,14.8970
2024-04-06T07:21:15.505Z,14.8600
2024-04-06T07:22:16.956Z,15.1009
2024-04-06T07:23:18.286Z,15.0172
2024-04-06T07:24:19.553Z,14.9256
2024-04-06T07:25:20.814Z,15.1685
2024-04-06T07:26:22.078Z,15.1760
2024-04-06T07:27:23.503Z,15.0730
2024-04-06T07:28:24.942Z,15.1066
2024-04-06T07:29:26.386Z,15.3419
2024-04-06T07:30:27.833Z,15.5403
2024-04-06T07:31:29.279Z,15.4974
2024-04-06T07:32:30.770Z,15.6358
2024-04-06T07:33:32.124Z,15.6908
2024-04-06T07:34:33.595Z,15.7263
2024-04-06T07:35:35.020Z,15.7531
2024-04-06T07:36:36.471Z,15.4749
2024-04-06T07:37:37.898Z,15.5811
2024-04-06T07:39:20.084Z,15.8606
2024-04-06T07:39:39.298Z,16.1471
2024-04-06T07:40:40.625Z,16.1777
2024-04-06T07:41:42.055Z,16.2716
2024-04-06T07:42:43.498Z,16.4080
2024-04-06T07:43:44.944Z,16.2828
2024-04-06T07:44:46.380Z,16.0586
2024-04-06T07:45:47.671Z,16.2068
2024-04-06T07:46:49.525Z,16.4151
2024-04-06T07:47:50.968Z,16.3822
2024-04-06T07:48:52.381Z,16.8605
2024-04-06T07:49:53.835Z,16.4740
2024-04-06T07:50:55.286Z,16.5038
2024-04-06T07:51:56.728Z,16.5753
2024-04-06T07:52:58.151Z,16.3964
2024-04-06T07:53:59.442Z,16.5211
2024-04-06T07:55:00.727Z,16.3161
2024-04-06T07:56:02.018Z,16.6141
2024-04-06T07:57:03.425Z,16.2597
2024-04-06T07:58:04.713Z,16.1975
2024-04-06T07:59:06.014Z,16.2200
2024-04-06T08:00:07.454Z,16.4293
2024-04-06T08:01:08.797Z,16.1885
2024-04-06T08:02:10.208Z,16.4042
2024-04-06T08:03:11.657Z,16.2709
2024-04-06T08:04:12.981Z,16.4501
2024-04-06T08:05:14.305Z,16.6383
2024-04-06T08:06:15.697Z,16.5266
2024-04-06T08:07:17.131Z,16.2097
2024-04-06T08:08:18.456Z,16.0704
2024-04-06T08:09:19.745Z,16.2952
2024-04-06T08:10:21.226Z,16.3615
2024-04-06T08:11:22.537Z,16.2586
2024-04-06T08:12:23.997Z,16.3224
2024-04-06T08:13:25.431Z,16.2193
2024-04-06T08:14:26.846Z,16.4100
2024-04-06T08:15:30.830Z,16.6802
2024-04-06T08:16:29.738Z,16.4312
2024-04-06T08:17:31.197Z,16.7187
2024-04-06T08:18:32.620Z,16.6486
2024-04-06T08:19:34.066Z,16.5971
2024-04-06T08:20:35.494Z,17.0718
2024-04-06T08:21:36.788Z,17.1492
2024-04-06T08:22:38.053Z,17.3407
2024-04-06T08:23:39.502Z,17.4175
2024-04-06T08:24:40.996Z,17.5647
2024-04-06T08:25:42.411Z,17.7563
2024-04-06T08:26:43.813Z,17.6772
2024-04-06T08:27:45.097Z,17.4780
2024-04-06T08:28:46.526Z,17.1821
2024-04-06T08:29:47.818Z,17.0724
2024-04-06T08:30:49.121Z,17.7486
2024-04-06T08:31:50.462Z,17.9357
2024-04-06T08:32:51.730Z,17.7801
2024-04-06T08:33:53.036Z,17.9406
2024-04-06T08:34:54.393Z,17.2713
2024-04-06T08:35:55.822Z,17.3412
2024-04-06T08:36:57.270Z,17.8584
2024-04-06T08:37:58.723Z,18.2648
2024-04-06T08:39:00.148Z,18.2207
2024-04-06T08:40:01.604Z,18.2094
2024-04-06T08:41:03.017Z,17.6525
2024-04-06T08:42:04.459Z,18.0463
2024-04-06T08:43:05.911Z,18.3781
2024-04-06T08:44:07.348Z,18.2709
2024-04-06T08:45:08.765Z,18.0059
2024-04-06T08:46:10.252Z,18.4820
2024-04-06T08:47:11.656Z,18.4257
2024-04-06T08:48:13.102Z,19.0081
2024-04-06T08:49:14.580Z,18.6658
2024-04-06T08:50:15.986Z,19.2052
2024-04-06T08:51:17.422Z,19.3884
2024-04-06T08:52:18.857Z,19.2882
2024-04-06T08:53:20.343Z,19.2754
2024-04-06T08:54:21.767Z,19.3479
2024-04-06T08:55:23.177Z,19.4226
2024-04-06T08:56:24.627Z,19.7702
2024-04-06T08:57:26.056Z,20.0718
2024-04-06T08:58:27.356Z,19.9060
2024-04-06T08:59:28.636Z,20.3142
2024-04-06T09:00:30.098Z,20.7939
2024-04-06T09:01:31.488Z,20.2811
2024-04-06T09:02:32.935Z,22.2340
2024-04-06T09:03:34.389Z,21.0910
2024-04-06T09:04:35.839Z,21.2352
2024-04-06T09:05:37.247Z,20.5742
2024-04-06T09:06:38.694Z,20.7653
2024-04-06T09:07:40.133Z,21.2526
2024-04-06T09:08:41.580Z,22.1033
2024-04-06T09:09:43.012Z,22.2651
2024-04-06T09:10:44.464Z,22.9005
2024-04-06T09:11:45.894Z,22.7957
2024-04-06T09:12:47.379Z,22.0067
2024-04-06T09:13:48.907Z,22.8787
2024-04-06T09:14:50.245Z,21.3332
2024-04-06T09:15:51.662Z,21.3203
2024-04-06T09:16:53.170Z,21.5485
2024-04-06T09:17:54.541Z,21.4164
2024-04-06T09:18:55.979Z,21.4205
2024-04-06T09:19:57.425Z,21.9835
2024-04-06T09:20:58.863Z,22.2477
2024-04-06T09:22:00.300Z,21.7733
2024-04-06T09:23:01.577Z,21.9877
2024-04-06T09:24:02.844Z,21.8430
2024-04-06T09:25:04.338Z,21.2505
2024-04-06T09:26:05.603Z,21.9180
2024-04-06T09:27:06.895Z,21.8581
2024-04-06T09:28:08.318Z,20.4615
2024-04-06T09:29:09.753Z,21.4257
2024-04-06T09:30:11.125Z,22.2324
2024-04-06T09:31:12.459Z,23.2175
2024-04-06T09:32:13.744Z,22.8926
2024-04-06T09:33:15.180Z,22.6875
2024-04-06T09:34:16.649Z,23.6843
2024-04-06T09:35:18.120Z,23.2860
2024-04-06T09:36:19.587Z,22.4341
2024-04-06T09:37:20.944Z,22.7558
2024-04-06T09:38:25.663Z,21.8847
2024-04-06T09:39:23.826Z,22.1573
2024-04-06T09:40:25.254Z,21.9032
2024-04-06T09:41:26.698Z,21.9063
2024-04-06T09:42:27.977Z,21.8077
2024-04-06T09:43:29.276Z,21.8382
2024-04-06T09:44:30.708Z,22.3408
2024-04-06T09:45:32.145Z,22.3471
2024-04-06T09:46:33.596Z,22.8871
2024-04-06T09:47:35.014Z,22.4783
2024-04-06T09:48:36.455Z,22.8614
2024-04-06T09:49:37.815Z,22.0110
2024-04-06T09:50:39.105Z,20.9183
2024-04-06T09:51:40.465Z,20.3180
2024-04-06T09:52:41.898Z,20.9116
2024-04-06T09:53:43.343Z,21.1032
2024-04-06T09:54:44.776Z,21.1147
2024-04-06T09:55:46.225Z,21.1489
2024-04-06T09:56:47.679Z,21.6055
2024-04-06T09:57:48.941Z,21.3300
2024-04-06T09:58:50.249Z,21.1250
2024-04-06T09:59:52.397Z,20.8106
2024-04-06T10:00:54.667Z,20.4509
2024-04-06T10:01:56.106Z,20.9358
2024-04-06T10:02:57.548Z,21.1255
2024-04-06T10:03:58.978Z,20.9266
2024-04-06T10:05:00.347Z,20.9084
2024-04-06T10:06:01.621Z,20.6972
2024-04-06T10:07:02.908Z,20.7795
2024-04-06T10:08:04.252Z,20.7019
2024-04-06T10:09:05.560Z,20.0728
2024-04-06T10:10:07.016Z,20.2283
2024-04-06T10:11:08.464Z,20.7748
2024-04-06T10:12:09.904Z,20.3715
2024-04-06T10:13:11.350Z,20.2652
2024-04-06T10:14:13.795Z,20.8267
2024-04-06T10:15:16.079Z,20.7176
2024-04-06T10:16:17.456Z,21.6838
2024-04-06T10:17:18.744Z,21.5664
2024-04-06T10:18:20.138Z,21.3413
2024-04-06T10:19:21.599Z,20.7074
2024-04-06T10:20:22.855Z,20.8864
2024-04-06T10:21:24.141Z,21.5740
2024-04-06T10:22:25.600Z,21.1312
2024-04-06T10:23:27.028Z,21.9208
2024-04-06T10:24:28.458Z,21.8883
2024-04-06T10:25:29.898Z,21.9924
2024-04-06T10:26:31.341Z,21.3123
2024-04-06T10:27:32.772Z,21.0820
2024-04-06T10:28:34.234Z,21.8597
2024-04-06T10:29:35.656Z,21.9032
2024-04-06T10:30:37.120Z,21.2994
2024-04-06T10:31:46.058Z,20.5280
2024-04-06T10:32:38.668Z,20.2344
2024-04-06T10:33:40.116Z,20.5537
2024-04-06T10:34:49.690Z,20.6466
2024-04-06T10:35:41.597Z,21.9038
2024-04-06T10:36:42.919Z,22.7916
2024-04-06T10:37:44.246Z,22.5588
2024-04-06T10:38:45.627Z,22.6284
2024-04-06T10:39:46.881Z,21.9883
2024-04-06T10:40:48.308Z,22.0446
2024-04-06T10:41:49.855Z,22.2147
2024-04-06T10:42:51.176Z,22.1622
2024-04-06T10:43:52.622Z,21.8636
2024-04-06T10:44:54.056Z,22.3738
2024-04-06T10:45:55.528Z,21.9596
2024-04-06T10:46:56.990Z,21.8036
2024-04-06T10:47:58.404Z,22.6729
2024-04-06T10:48:59.767Z,23.1850
2024-04-06T10:50:01.125Z,22.9321
2024-04-06T10:51:02.447Z,23.2483
2024-04-06T10:52:03.819Z,23.8279
2024-04-06T10:53:05.242Z,23.7365
2024-04-06T10:54:06.691Z,22.5442
2024-04-06T10:55:08.131Z,23.2644
2024-04-06T10:56:09.658Z,23.1130
2024-04-06T10:57:11.101Z,22.9869
2024-04-06T10:58:12.481Z,22.7506
2024-04-06T10:59:13.814Z,22.4206
2024-04-06T11:00:15.104Z,22.9495
2024-04-06T11:01:16.483Z,23.2555
2024-04-06T11:02:17.904Z,22.7228
2024-04-06T11:03:19.348Z,22.8152
2024-04-06T11:04:20.898Z,21.9637
2024-04-06T11:05:22.266Z,21.9784
2024-04-06T11:06:23.669Z,22.7909
2024-04-06T11:07:25.099Z,23.0629
2024-04-06T11:08:26.365Z,22.5395
2024-04-06T11:09:27.645Z,22.6674
2024-04-06T11:10:28.934Z,22.9798
2024-04-06T11:11:30.209Z,22.7579
2024-04-06T11:12:31.657Z,22.6113
2024-04-06T11:13:33.102Z,22.7816
2024-04-06T11:14:34.537Z,22.4434
2024-04-06T11:15:35.987Z,22.2062
2024-04-06T11:16:37.539Z,21.9561
2024-04-06T11:17:38.931Z,22.2444
2024-04-06T11:18:42.159Z,22.0485
2024-04-06T11:19:43.628Z,21.8591
2024-04-06T11:20:45.087Z,22.4915
2024-04-06T11:21:46.434Z,22.7120
2024-04-06T11:22:47.768Z,22.8092
2024-04-06T11:23:49.405Z,22.7304
2024-04-06T11:24:50.847Z,22.0622
2024-04-06T11:25:52.274Z,22.5114
2024-04-06T11:26:53.717Z,22.2705
2024-04-06T11:27:55.204Z,22.4387
2024-04-06T11:28:56.608Z,23.2585
2024-04-06T11:29:58.880Z,22.9632
2024-04-06T11:31:01.430Z,23.0260
2024-04-06T11:32:02.699Z,23.0488
2024-04-06T11:33:04.001Z,23.1448
2024-04-06T11:34:05.418Z,23.2401
2024-04-06T11:35:06.872Z,23.4123
2024-04-06T11:36:08.308Z,22.7709
2024-04-06T11:37:09.815Z,22.8125
2024-04-06T11:38:11.175Z,22.6658
2024-04-06T11:39:12.612Z,23.0420
2024-04-06T11:40:14.062Z,22.8974
2024-04-06T11:41:15.498Z,23.0792
2024-04-06T11:42:16.956Z,23.0048
2024-04-06T11:43:18.546Z,23.1991
2024-04-06T11:44:19.805Z,23.3535
2024-04-06T11:45:21.284Z,23.4641
2024-04-06T11:46:22.754Z,23.0557
2024-04-06T11:47:24.147Z,23.0805
2024-04-06T11:48:26.982Z,22.8292
2024-04-06T11:49:26.108Z,23.3275
2024-04-06T11:50:27.421Z,23.1894
2024-04-06T11:51:28.762Z,23.5456
2024-04-06T11:52:30.037Z,22.8661
2024-04-06T11:53:31.518Z,23.3708
2024-04-06T11:54:32.945Z,23.6920
2024-04-06T11:55:34.387Z,23.6760
2024-04-06T11:56:35.806Z,22.9966
2024-04-06T11:57:37.266Z,23.3747
2024-04-06T11:58:38.533Z,23.5641
2024-04-06T11:59:39.854Z,23.1597
2024-04-06T12:00:41.279Z,23.4771
2024-04-06T12:01:42.711Z,23.7022
2024-04-06T12:02:44.144Z,24.1075
2024-04-06T12:03:45.630Z,24.1213
2024-04-06T12:04:47.022Z,24.5055
2024-04-06T12:05:48.467Z,24.5922
2024-04-06T12:06:49.934Z,24.6386
2024-04-06T12:07:51.344Z,23.6741
2024-04-06T12:08:52.762Z,24.1932
2024-04-06T12:09:54.225Z,24.5936
2024-04-06T12:10:55.656Z,23.6501
2024-04-06T12:11:59.143Z,24.0932
2024-04-06T12:13:00.528Z,24.0973
2024-04-06T12:14:01.898Z,23.5985
2024-04-06T12:15:03.188Z,24.9593
2024-04-06T12:16:04.509Z,25.1905
2024-04-06T12:17:05.824Z,24.8396
2024-04-06T12:18:07.141Z,25.5166
2024-04-06T12:19:08.457Z,25.2125
2024-04-06T12:20:09.922Z,24.8205
2024-04-06T12:21:11.331Z,24.9340
2024-04-06T12:22:12.777Z,24.4527
2024-04-06T12:23:14.221Z,26.0040
2024-04-06T12:24:15.686Z,25.6501
2024-04-06T12:25:17.160Z,26.0970
2024-04-06T12:26:18.537Z,25.9748
2024-04-06T12:27:19.864Z,25.6476
2024-04-06T12:28:21.157Z,25.5334